createdAt,value
2019-04-28T00:00:02.243Z,0.00
2019-04-28T00:01:02.233Z,0.00
2019-04-28T00:02:02.226Z,0.00
2019-04-28T00:03:02.224Z,0.00
2019-04-28T00:04:03.484Z,0.00
2019-04-28T00:05:02.193Z,0.00
2019-04-28T00:06:02.187Z,0.00
2019-04-28T00:07:02.169Z,0.00
2019-04-28T00:08:02.159Z,0.00
2019-04-28T00:09:02.161Z,0.00
2019-04-28T00:10:02.137Z,0.00
2019-04-28T00:11:02.126Z,0.00
2019-04-28T00:12:02.116Z,0.00
2019-04-28T00:13:02.106Z,0.00
2019-04-28T00:14:02.098Z,0.00
2019-04-28T00:15:02.539Z,0.00
2019-04-28T00:16:02.074Z,0.00
2019-04-28T00:17:02.067Z,0.00
2019-04-28T00:18:04.154Z,0.00
2019-04-28T00:19:02.047Z,0.00
2019-04-28T00:20:02.032Z,0.00
2019-04-28T00:21:02.031Z,0.00
2019-04-28T00:22:02.014Z,0.00
2019-04-28T00:23:04.180Z,0.00
2019-04-28T00:24:01.990Z,0.00
2019-04-28T00:25:01.991Z,0.00
2019-04-28T00:26:01.969Z,0.00
2019-04-28T00:27:02.002Z,0.00
2019-04-28T00:28:01.946Z,0.00
2019-04-28T00:29:01.935Z,0.00
2019-04-28T00:30:02.198Z,0.00
2019-04-28T00:31:02.495Z,0.00
2019-04-28T00:32:01.904Z,0.00
2019-04-28T00:33:01.906Z,0.00
2019-04-28T00:34:01.884Z,0.00
2019-04-28T00:35:02.435Z,0.00
2019-04-28T00:36:01.862Z,0.00
2019-04-28T00:37:01.850Z,0.00
2019-04-28T00:38:01.840Z,0.00
2019-04-28T00:39:01.847Z,0.00
2019-04-28T00:40:01.818Z,0.00
2019-04-28T00:41:02.415Z,0.00
2019-04-28T00:42:03.305Z,0.00
2019-04-28T00:43:01.786Z,0.00
2019-04-28T00:44:02.023Z,0.00
2019-04-28T00:45:02.050Z,0.00
2019-04-28T00:46:01.755Z,0.00
2019-04-28T00:47:01.743Z,0.00
2019-04-28T00:48:01.732Z,0.00
2019-04-28T00:49:02.212Z,0.00
2019-04-28T00:50:02.260Z,0.00
2019-04-28T00:51:01.921Z,0.00
2019-04-28T00:52:03.103Z,0.00
2019-04-28T00:53:01.868Z,0.00
2019-04-28T00:54:01.669Z,0.00
2019-04-28T00:55:01.683Z,0.00
2019-04-28T00:56:02.145Z,0.00
2019-04-28T00:57:01.649Z,0.00
2019-04-28T00:58:01.625Z,0.00
2019-04-28T00:59:01.781Z,0.00
2019-04-28T01:00:02.430Z,0.00
2019-04-28T01:01:01.595Z,0.00
2019-04-28T01:02:01.586Z,0.00
2019-04-28T01:03:02.150Z,0.00
2019-04-28T01:04:02.124Z,0.00
2019-04-28T01:05:01.895Z,0.00
2019-04-28T01:06:01.962Z,0.00
2019-04-28T01:07:01.671Z,0.00
2019-04-28T01:08:01.519Z,0.00
2019-04-28T01:09:03.805Z,0.00
2019-04-28T01:10:01.599Z,0.00
2019-04-28T01:11:01.860Z,0.00
2019-04-28T01:12:01.901Z,0.00
2019-04-28T01:13:02.092Z,0.00
2019-04-28T01:14:01.802Z,0.00
2019-04-28T01:15:04.536Z,0.00
2019-04-28T01:16:01.434Z,0.00
2019-04-28T01:17:01.423Z,0.00
2019-04-28T01:18:01.413Z,0.00
2019-04-28T01:19:01.402Z,0.00
2019-04-28T01:20:01.398Z,0.00
2019-04-28T01:21:01.390Z,0.00
2019-04-28T01:22:01.369Z,0.00
2019-04-28T01:23:01.360Z,0.00
2019-04-28T01:24:01.349Z,0.00
2019-04-28T01:25:01.340Z,0.00
2019-04-28T01:26:01.338Z,0.00
2019-04-28T01:27:01.327Z,0.00
2019-04-28T01:28:01.311Z,0.00
2019-04-28T01:29:01.296Z,0.00
2019-04-28T01:30:07.970Z,0.00
2019-04-28T01:31:02.275Z,0.00
2019-04-28T01:32:01.262Z,0.00
2019-04-28T01:33:01.264Z,0.00
2019-04-28T01:34:01.655Z,0.00
2019-04-28T01:35:01.234Z,0.00
2019-04-28T01:36:01.220Z,0.00
2019-04-28T01:37:01.213Z,0.00
2019-04-28T01:38:01.197Z,0.00
2019-04-28T01:39:01.200Z,0.00
2019-04-28T01:40:01.176Z,0.00
2019-04-28T01:41:01.595Z,0.00
2019-04-28T01:42:01.155Z,0.00
2019-04-28T01:43:01.162Z,0.00
2019-04-28T01:44:01.134Z,0.00
2019-04-28T01:45:01.135Z,0.00
2019-04-28T01:46:01.113Z,0.00
2019-04-28T01:47:01.269Z,0.00
2019-04-28T01:48:02.307Z,0.00
2019-04-28T01:49:01.080Z,0.00
2019-04-28T01:50:02.061Z,0.00
2019-04-28T01:51:01.082Z,0.00
2019-04-28T01:52:01.317Z,0.00
2019-04-28T01:53:01.045Z,0.00
2019-04-28T01:54:01.026Z,0.00
2019-04-28T01:55:01.016Z,0.00
2019-04-28T01:56:01.007Z,0.00
2019-04-28T01:57:01.545Z,0.00
2019-04-28T01:58:00.984Z,0.00
2019-04-28T01:59:00.973Z,0.00
2019-04-28T02:00:00.963Z,0.00
2019-04-28T02:01:00.954Z,0.00
2019-04-28T02:02:00.941Z,0.00
2019-04-28T02:03:02.098Z,0.00
2019-04-28T02:04:00.919Z,0.00
2019-04-28T02:05:00.909Z,0.00
2019-04-28T02:06:00.898Z,0.00
2019-04-28T02:07:00.887Z,0.00
2019-04-28T02:08:00.875Z,0.00
2019-04-28T02:09:01.031Z,0.00
2019-04-28T02:10:00.919Z,0.00
2019-04-28T02:11:00.842Z,0.00
2019-04-28T02:12:00.921Z,0.00
2019-04-28T02:13:00.823Z,0.00
2019-04-28T02:14:00.810Z,0.00
2019-04-28T02:15:01.276Z,0.00
2019-04-28T02:16:00.791Z,0.00
2019-04-28T02:17:00.777Z,0.00
2019-04-28T02:18:00.767Z,0.00
2019-04-28T02:19:00.759Z,0.00
2019-04-28T02:20:00.889Z,0.00
2019-04-28T02:21:00.747Z,0.00
2019-04-28T02:22:00.722Z,0.00
2019-04-28T02:23:00.711Z,0.00
2019-04-28T02:24:00.700Z,0.00
2019-04-28T02:25:00.702Z,0.00
2019-04-28T02:26:00.683Z,0.00
2019-04-28T02:27:01.049Z,0.00
2019-04-28T02:28:00.656Z,0.00
2019-04-28T02:29:00.649Z,0.00
2019-04-28T02:30:00.635Z,0.00
2019-04-28T02:31:02.282Z,0.00
2019-04-28T02:32:02.216Z,0.00
2019-04-28T02:33:01.702Z,0.00
2019-04-28T02:34:00.800Z,0.00
2019-04-28T02:35:01.592Z,0.00
2019-04-28T02:36:01.413Z,0.00
2019-04-28T02:37:01.622Z,0.00
2019-04-28T02:38:00.551Z,0.00
2019-04-28T02:39:00.864Z,0.00
2019-04-28T02:40:03.330Z,0.00
2019-04-28T02:41:00.517Z,0.00
2019-04-28T02:42:01.455Z,0.00
2019-04-28T02:43:01.255Z,0.00
2019-04-28T02:44:01.047Z,0.00
2019-04-28T02:45:00.763Z,0.00
2019-04-28T02:46:00.805Z,0.00
2019-04-28T02:47:00.975Z,0.00
2019-04-28T02:48:01.066Z,0.00
2019-04-28T02:49:00.957Z,0.00
2019-04-28T02:50:00.913Z,0.00
2019-04-28T02:51:01.231Z,0.00
2019-04-28T02:52:02.925Z,0.00
2019-04-28T02:53:01.715Z,0.00
2019-04-28T02:54:00.680Z,0.00
2019-04-28T02:55:03.090Z,0.00
2019-04-28T02:56:00.968Z,0.00
2019-04-28T02:57:01.298Z,0.00
2019-04-28T02:58:01.404Z,0.00
2019-04-28T02:59:01.006Z,0.00
2019-04-28T03:00:00.620Z,0.00
2019-04-28T03:01:09.682Z,0.00
2019-04-28T03:02:01.317Z,0.00
2019-04-28T03:03:01.470Z,0.00
2019-04-28T03:04:00.473Z,0.00
2019-04-28T03:05:00.565Z,0.00
2019-04-28T03:06:01.385Z,0.00
2019-04-28T03:07:01.327Z,0.00
2019-04-28T03:08:01.048Z,0.00
2019-04-28T03:09:00.413Z,0.00
2019-04-28T03:10:03.236Z,0.00
2019-04-28T03:11:01.068Z,0.00
2019-04-28T03:12:01.553Z,0.00
2019-04-28T03:13:00.987Z,0.00
2019-04-28T03:14:00.949Z,0.00
2019-04-28T03:15:00.620Z,0.00
2019-04-28T03:16:01.488Z,0.00
2019-04-28T03:17:00.869Z,0.00
2019-04-28T03:18:01.742Z,0.00
2019-04-28T03:19:01.257Z,0.00
2019-04-28T03:20:00.981Z,0.00
2019-04-28T03:21:01.693Z,0.00
2019-04-28T03:22:01.350Z,0.00
2019-04-28T03:23:00.937Z,0.00
2019-04-28T03:24:01.252Z,0.00
2019-04-28T03:25:00.874Z,0.00
2019-04-28T03:26:01.437Z,0.00
2019-04-28T03:27:00.610Z,0.00
2019-04-28T03:28:00.651Z,0.00
2019-04-28T03:29:01.014Z,0.00
2019-04-28T03:30:00.914Z,0.00
2019-04-28T03:31:06.433Z,0.00
2019-04-28T03:32:23.106Z,0.00
2019-04-28T03:33:10.988Z,0.00
2019-04-28T03:34:04.105Z,0.00
2019-04-28T03:35:03.120Z,0.00
2019-04-28T03:36:03.723Z,0.00
2019-04-28T03:37:00.910Z,0.00
2019-04-28T03:38:01.260Z,0.00
2019-04-28T03:39:00.706Z,0.00
2019-04-28T03:40:00.616Z,0.00
2019-04-28T03:41:01.009Z,0.00
2019-04-28T03:42:00.203Z,0.00
2019-04-28T03:43:02.876Z,0.00
2019-04-28T03:44:00.545Z,0.00
2019-04-28T03:45:01.068Z,4.00
2019-04-28T03:46:00.758Z,4.00
2019-04-28T03:47:00.714Z,0.00
2019-04-28T03:48:00.350Z,4.00
2019-04-28T03:49:00.809Z,4.00
2019-04-28T03:50:00.166Z,4.00
2019-04-28T03:51:00.676Z,8.00
2019-04-28T03:52:00.402Z,4.00
2019-04-28T03:53:01.066Z,8.00
2019-04-28T03:54:02.414Z,8.00
2019-04-28T03:55:00.508Z,8.00
2019-04-28T03:56:01.527Z,12.00
2019-04-28T03:57:01.304Z,12.00
2019-04-28T03:58:00.899Z,16.00
2019-04-28T03:59:00.483Z,16.00
2019-04-28T04:00:01.434Z,20.00
2019-04-28T04:01:02.683Z,24.00
2019-04-28T04:02:03.170Z,24.00
2019-04-28T04:03:00.815Z,28.00
2019-04-28T04:04:01.184Z,28.00
2019-04-28T04:05:03.293Z,32.00
2019-04-28T04:06:00.864Z,36.00
2019-04-28T04:07:01.502Z,36.00
2019-04-28T04:08:00.868Z,40.00
2019-04-28T04:09:00.325Z,44.00
2019-04-28T04:10:00.952Z,48.00
2019-04-28T04:11:00.230Z,56.00
2019-04-28T04:12:00.314Z,56.00
2019-04-28T04:13:00.885Z,60.00
2019-04-28T04:14:01.674Z,64.00
2019-04-28T04:15:00.770Z,68.00
2019-04-28T04:16:01.557Z,72.00
2019-04-28T04:17:00.125Z,76.00
2019-04-28T04:18:01.279Z,80.00
2019-04-28T04:19:00.701Z,80.00
2019-04-28T04:20:01.831Z,84.00
2019-04-28T04:21:00.773Z,88.00
2019-04-28T04:22:00.359Z,96.00
2019-04-28T04:23:01.460Z,96.00
2019-04-28T04:24:01.123Z,104.00
2019-04-28T04:25:01.254Z,112.00
2019-04-28T04:26:01.653Z,116.00
2019-04-28T04:27:00.877Z,124.00
2019-04-28T04:28:02.981Z,128.00
2019-04-28T04:29:00.954Z,136.00
2019-04-28T04:30:01.572Z,144.00
2019-04-28T04:31:02.516Z,152.00
2019-04-28T04:32:13.864Z,164.00
2019-04-28T04:33:01.269Z,180.00
2019-04-28T04:34:00.693Z,184.00
2019-04-28T04:35:00.695Z,192.00
2019-04-28T04:36:01.653Z,204.00
2019-04-28T04:37:00.746Z,212.00
2019-04-28T04:38:00.519Z,220.00
2019-04-28T04:39:01.768Z,228.00
2019-04-28T04:40:01.375Z,240.00
2019-04-28T04:41:01.553Z,248.00
2019-04-28T04:42:00.648Z,264.00
2019-04-28T04:43:01.521Z,276.00
2019-04-28T04:44:01.137Z,292.00
2019-04-28T04:45:00.507Z,304.00
2019-04-28T04:46:01.426Z,324.00
2019-04-28T04:47:00.988Z,344.00
2019-04-28T04:48:00.654Z,368.00
2019-04-28T04:49:00.716Z,388.00
2019-04-28T04:50:00.285Z,408.00
2019-04-28T04:51:00.759Z,428.00
2019-04-28T04:52:00.392Z,452.00
2019-04-28T04:52:59.088Z,476.00
2019-04-28T04:54:01.073Z,504.00
2019-04-28T04:55:01.288Z,524.00
2019-04-28T04:56:00.359Z,548.00
2019-04-28T04:57:00.065Z,576.00
2019-04-28T04:58:00.789Z,596.00
2019-04-28T04:59:02.196Z,616.00
2019-04-28T04:59:59.981Z,636.00
2019-04-28T05:01:00.794Z,656.00
2019-04-28T05:02:01.710Z,676.00
2019-04-28T05:03:00.850Z,704.00
2019-04-28T05:03:59.626Z,728.00
2019-04-28T05:05:00.415Z,744.00
2019-04-28T05:06:00.138Z,756.00
2019-04-28T05:06:59.715Z,760.00
2019-04-28T05:08:00.324Z,776.00
2019-04-28T05:08:59.925Z,788.00
2019-04-28T05:09:59.499Z,800.00
2019-04-28T05:11:00.036Z,824.00
2019-04-28T05:11:59.753Z,856.00
2019-04-28T05:13:00.229Z,892.00
2019-04-28T05:13:59.686Z,920.00
2019-04-28T05:15:00.492Z,948.00
2019-04-28T05:15:59.849Z,976.00
2019-04-28T05:17:00.676Z,1004.00
2019-04-28T05:18:00.226Z,1036.00
2019-04-28T05:19:00.106Z,1068.00
2019-04-28T05:19:59.710Z,1096.00
2019-04-28T05:20:59.500Z,1128.00
2019-04-28T05:22:00.029Z,1156.00
2019-04-28T05:23:00.263Z,1176.00
2019-04-28T05:23:59.637Z,1192.00
2019-04-28T05:25:00.062Z,1204.00
2019-04-28T05:26:01.493Z,1216.00
2019-04-28T05:26:59.733Z,1240.00
2019-04-28T05:28:02.683Z,1280.00
2019-04-28T05:28:59.528Z,1332.00
2019-04-28T05:30:02.450Z,1368.00
2019-04-28T05:31:00.100Z,1388.00
2019-04-28T05:31:59.893Z,1408.00
2019-04-28T05:33:00.262Z,1424.00
2019-04-28T05:34:00.019Z,1432.00
2019-04-28T05:35:00.153Z,1432.00
2019-04-28T05:36:02.609Z,1440.00
2019-04-28T05:37:00.542Z,1464.00
2019-04-28T05:37:59.751Z,1488.00
2019-04-28T05:39:00.141Z,1528.00
2019-04-28T05:40:00.638Z,1580.00
2019-04-28T05:41:02.318Z,1620.00
2019-04-28T05:42:00.646Z,1644.00
2019-04-28T05:43:00.525Z,1688.00
2019-04-28T05:43:59.603Z,1716.00
2019-04-28T05:44:59.920Z,1732.00
2019-04-28T05:46:00.175Z,1764.00
2019-04-28T05:46:59.546Z,1796.00
2019-04-28T05:47:59.433Z,1824.00
2019-04-28T05:48:59.974Z,1856.00
2019-04-28T05:49:59.893Z,1904.00
2019-04-28T05:50:59.937Z,1960.00
2019-04-28T05:51:58.444Z,2032.00
2019-04-28T05:53:00.399Z,2104.00
2019-04-28T05:53:59.501Z,2128.00
2019-04-28T05:54:59.796Z,2180.00
2019-04-28T05:56:00.074Z,2260.00
2019-04-28T05:56:59.741Z,2344.00
2019-04-28T05:57:59.936Z,2420.00
2019-04-28T05:59:00.511Z,2500.00
2019-04-28T06:00:00.984Z,2560.00
2019-04-28T06:01:00.106Z,2608.00
2019-04-28T06:02:00.499Z,2688.00
2019-04-28T06:02:58.327Z,2820.00
2019-04-28T06:03:58.315Z,2992.00
2019-04-28T06:04:59.926Z,3164.00
2019-04-28T06:05:59.977Z,3316.00
2019-04-28T06:06:59.759Z,3480.00
2019-04-28T06:07:59.619Z,3652.00
2019-04-28T06:08:59.819Z,3836.00
2019-04-28T06:10:00.053Z,4056.00
2019-04-28T06:10:59.890Z,4300.00
2019-04-28T06:12:00.025Z,4540.00
2019-04-28T06:12:59.767Z,4728.00
2019-04-28T06:13:59.929Z,4820.00
2019-04-28T06:15:00.035Z,4788.00
2019-04-28T06:15:59.887Z,4788.00
2019-04-28T06:16:58.174Z,4848.00
2019-04-28T06:18:00.000Z,4976.00
2019-04-28T06:18:59.978Z,5432.00
2019-04-28T06:20:00.061Z,8620.00
2019-04-28T06:20:58.129Z,9532.00
2019-04-28T06:21:58.118Z,7904.00
2019-04-28T06:22:58.108Z,5692.00
2019-04-28T06:23:58.098Z,5028.00
2019-04-28T06:24:58.108Z,4904.00
2019-04-28T06:25:58.086Z,4948.00
2019-04-28T06:26:58.101Z,5024.00
2019-04-28T06:27:58.054Z,5084.00
2019-04-28T06:28:58.048Z,5136.00
2019-04-28T06:29:58.033Z,5140.00
2019-04-28T06:30:58.032Z,5056.00
2019-04-28T06:31:58.084Z,4996.00
2019-04-28T06:33:07.733Z,5000.00
2019-04-28T06:33:58.990Z,5064.00
2019-04-28T06:34:57.978Z,5192.00
2019-04-28T06:35:58.016Z,5308.00
2019-04-28T06:36:57.966Z,5412.00
2019-04-28T06:37:57.946Z,5536.00
2019-04-28T06:38:57.934Z,5688.00
2019-04-28T06:39:57.923Z,5860.00
2019-04-28T06:40:57.912Z,6056.00
2019-04-28T06:41:57.901Z,6232.00
2019-04-28T06:42:57.907Z,6384.00
2019-04-28T06:43:57.878Z,6528.00
2019-04-28T06:44:57.868Z,6628.00
2019-04-28T06:45:57.857Z,6508.00
2019-04-28T06:46:57.849Z,6504.00
2019-04-28T06:47:57.835Z,6504.00
2019-04-28T06:48:57.834Z,6528.00
2019-04-28T06:49:57.813Z,6576.00
2019-04-28T06:50:57.803Z,6628.00
2019-04-28T06:51:57.791Z,6740.00
2019-04-28T06:52:57.782Z,6892.00
2019-04-28T06:53:57.770Z,7100.00
2019-04-28T06:54:57.774Z,7372.00
2019-04-28T06:55:57.749Z,7464.00
2019-04-28T06:56:57.742Z,7620.00
2019-04-28T06:57:57.728Z,7784.00
2019-04-28T06:58:59.252Z,7952.00
2019-04-28T06:59:57.706Z,8200.00
2019-04-28T07:00:57.728Z,8400.00
2019-04-28T07:01:57.684Z,8568.00
2019-04-28T07:02:57.674Z,8740.00
2019-04-28T07:03:57.664Z,8916.00
2019-04-28T07:05:02.260Z,9208.00
2019-04-28T07:05:57.643Z,9860.00
2019-04-28T07:06:57.642Z,10612.00
2019-04-28T07:07:57.620Z,12112.00
2019-04-28T07:08:57.612Z,13872.00
2019-04-28T07:09:57.597Z,11512.00
2019-04-28T07:10:57.586Z,10176.00
2019-04-28T07:11:57.576Z,10064.00
2019-04-28T07:12:57.574Z,10004.00
2019-04-28T07:13:57.554Z,10084.00
2019-04-28T07:14:57.541Z,10552.00
2019-04-28T07:15:57.536Z,10984.00
2019-04-28T07:16:57.519Z,11092.00
2019-04-28T07:17:57.509Z,9740.00
2019-04-28T07:18:57.513Z,14224.00
2019-04-28T07:19:57.489Z,12328.00
2019-04-28T07:20:57.478Z,11064.00
2019-04-28T07:21:57.466Z,8616.00
2019-04-28T07:22:57.457Z,9868.00
2019-04-28T07:23:57.444Z,10476.00
2019-04-28T07:24:57.451Z,9612.00
2019-04-28T07:25:57.426Z,15180.00
2019-04-28T07:26:57.412Z,17536.00
2019-04-28T07:27:57.401Z,12000.00
2019-04-28T07:28:57.390Z,11648.00
2019-04-28T07:29:57.381Z,13860.00
2019-04-28T07:30:57.378Z,18624.00
2019-04-28T07:31:57.357Z,8276.00
2019-04-28T07:32:57.349Z,7804.00
2019-04-28T07:33:57.335Z,11352.00
2019-04-28T07:34:57.324Z,13304.00
2019-04-28T07:35:57.312Z,19168.00
2019-04-28T07:36:57.329Z,25184.00
2019-04-28T07:37:57.290Z,9492.00
2019-04-28T07:38:57.280Z,8820.00
2019-04-28T07:39:57.270Z,11308.00
2019-04-28T07:40:57.259Z,8040.00
2019-04-28T07:41:57.248Z,8984.00
2019-04-28T07:42:57.267Z,9020.00
2019-04-28T07:43:57.225Z,9568.00
2019-04-28T07:44:57.216Z,11912.00
2019-04-28T07:45:57.214Z,17088.00
2019-04-28T07:46:57.195Z,10768.00
2019-04-28T07:47:57.183Z,6988.00
2019-04-28T07:48:57.183Z,6848.00
2019-04-28T07:49:57.161Z,7292.00
2019-04-28T07:50:57.156Z,6736.00
2019-04-28T07:51:57.142Z,6004.00
2019-04-28T07:52:57.128Z,6160.00
2019-04-28T07:53:57.117Z,6780.00
2019-04-28T07:54:57.115Z,6336.00
2019-04-28T07:55:57.095Z,6524.00
2019-04-28T07:56:57.083Z,5908.00
2019-04-28T07:57:57.073Z,5580.00
2019-04-28T07:58:57.061Z,6624.00
2019-04-28T07:59:57.051Z,12404.00
2019-04-28T08:00:57.050Z,17216.00
2019-04-28T08:01:57.028Z,14464.00
2019-04-28T08:02:57.019Z,12168.00
2019-04-28T08:03:57.589Z,12636.00
2019-04-28T08:04:56.999Z,14968.00
2019-04-28T08:05:57.080Z,12452.00
2019-04-28T08:06:56.983Z,16128.00
2019-04-28T08:07:56.962Z,10064.00
2019-04-28T08:08:56.950Z,9356.00
2019-04-28T08:09:56.940Z,9468.00
2019-04-28T08:10:56.933Z,9428.00
2019-04-28T08:11:56.917Z,8244.00
2019-04-28T08:12:56.919Z,9044.00
2019-04-28T08:13:56.894Z,8528.00
2019-04-28T08:14:56.885Z,6492.00
2019-04-28T08:15:56.873Z,9688.00
2019-04-28T08:16:56.864Z,12876.00
2019-04-28T08:17:56.852Z,17888.00
2019-04-28T08:18:56.851Z,21408.00
2019-04-28T08:19:56.830Z,20608.00
2019-04-28T08:20:56.817Z,19680.00
2019-04-28T08:21:56.812Z,19360.00
2019-04-28T08:22:56.794Z,17728.00
2019-04-28T08:23:56.794Z,25376.00
2019-04-28T08:24:56.783Z,26208.00
2019-04-28T08:25:56.763Z,14436.00
2019-04-28T08:26:56.750Z,12708.00
2019-04-28T08:27:56.743Z,7804.00
2019-04-28T08:28:56.728Z,6408.00
2019-04-28T08:29:58.606Z,5880.00
2019-04-28T08:30:56.721Z,6192.00
2019-04-28T08:31:56.695Z,7116.00
2019-04-28T08:32:56.685Z,4812.00
2019-04-28T08:34:02.699Z,10484.00
2019-04-28T08:34:57.660Z,5108.00
2019-04-28T08:35:56.651Z,4680.00
2019-04-28T08:36:56.650Z,4624.00
2019-04-28T08:37:56.635Z,4876.00
2019-04-28T08:38:56.622Z,4972.00
2019-04-28T08:39:56.607Z,5512.00
2019-04-28T08:40:56.596Z,8840.00
2019-04-28T08:41:56.585Z,8072.00
2019-04-28T08:42:56.586Z,9228.00
2019-04-28T08:43:56.568Z,7164.00
2019-04-28T08:44:56.552Z,6792.00
2019-04-28T08:45:56.541Z,6376.00
2019-04-28T08:46:56.530Z,5644.00
2019-04-28T08:47:58.007Z,5028.00
2019-04-28T08:48:56.529Z,4724.00
2019-04-28T08:49:56.500Z,4844.00
2019-04-28T08:50:56.486Z,4352.00
2019-04-28T08:51:56.483Z,4556.00
2019-04-28T08:52:56.465Z,5324.00
2019-04-28T08:53:56.453Z,6960.00
2019-04-28T08:54:56.453Z,8032.00
2019-04-28T08:55:56.431Z,8748.00
2019-04-28T08:56:56.420Z,9768.00
2019-04-28T08:57:56.410Z,9424.00
2019-04-28T08:58:56.397Z,9820.00
2019-04-28T08:59:56.387Z,10164.00
2019-04-28T09:00:56.389Z,10468.00
2019-04-28T09:01:56.365Z,10188.00
2019-04-28T09:02:56.354Z,11196.00
2019-04-28T09:03:56.343Z,8828.00
2019-04-28T09:04:56.332Z,7512.00
2019-04-28T09:05:56.321Z,6936.00
2019-04-28T09:06:56.323Z,6452.00
2019-04-28T09:07:56.301Z,6004.00
2019-04-28T09:08:56.293Z,6480.00
2019-04-28T09:09:56.278Z,6312.00
2019-04-28T09:10:56.270Z,6228.00
2019-04-28T09:11:56.259Z,6032.00
2019-04-28T09:12:56.257Z,5868.00
2019-04-28T09:13:56.245Z,5780.00
2019-04-28T09:14:56.225Z,5984.00
2019-04-28T09:15:56.214Z,6124.00
2019-04-28T09:16:56.204Z,6124.00
2019-04-28T09:17:56.193Z,6140.00
2019-04-28T09:18:56.194Z,6444.00
2019-04-28T09:19:56.185Z,7168.00
2019-04-28T09:20:56.161Z,7676.00
2019-04-28T09:21:56.152Z,7824.00
2019-04-28T09:22:56.141Z,7864.00
2019-04-28T09:23:56.129Z,7812.00
2019-04-28T09:24:56.131Z,7868.00
2019-04-28T09:25:56.113Z,7516.00
2019-04-28T09:26:56.102Z,7188.00
2019-04-28T09:27:56.090Z,6524.00
2019-04-28T09:28:56.081Z,6068.00
2019-04-28T09:29:56.063Z,5644.00
2019-04-28T09:30:56.063Z,5644.00
2019-04-28T09:31:56.042Z,5392.00
2019-04-28T09:32:56.032Z,4912.00
2019-04-28T09:33:56.022Z,4208.00
2019-04-28T09:34:56.010Z,3944.00
2019-04-28T09:35:56.002Z,3568.00
2019-04-28T09:36:56.000Z,3244.00
2019-04-28T09:37:55.978Z,3004.00
2019-04-28T09:38:55.972Z,3300.00
2019-04-28T09:39:55.957Z,3960.00
2019-04-28T09:40:55.946Z,4496.00
2019-04-28T09:41:55.936Z,4944.00
2019-04-28T09:42:55.934Z,5592.00
2019-04-28T09:43:55.912Z,6420.00
2019-04-28T09:44:55.900Z,7100.00
2019-04-28T09:45:55.890Z,7600.00
2019-04-28T09:46:55.945Z,7804.00
2019-04-28T09:47:55.868Z,8200.00
2019-04-28T09:48:55.875Z,8372.00
2019-04-28T09:49:55.847Z,8380.00
2019-04-28T09:50:55.834Z,8576.00
2019-04-28T09:51:55.824Z,8636.00
2019-04-28T09:52:55.814Z,8596.00
2019-04-28T09:53:55.802Z,8580.00
2019-04-28T09:54:55.808Z,8592.00
2019-04-28T09:55:55.781Z,8560.00
2019-04-28T09:56:57.086Z,8208.00
2019-04-28T09:57:55.760Z,8100.00
2019-04-28T09:58:55.749Z,7852.00
2019-04-28T09:59:55.739Z,7816.00
2019-04-28T10:00:55.740Z,7536.00
2019-04-28T10:01:55.721Z,7708.00
2019-04-28T10:02:55.709Z,7544.00
2019-04-28T10:03:55.697Z,7388.00
2019-04-28T10:04:55.685Z,7088.00
2019-04-28T10:05:55.675Z,6948.00
2019-04-28T10:06:55.675Z,7008.00
2019-04-28T10:07:55.653Z,6640.00
2019-04-28T10:08:55.643Z,6136.00
2019-04-28T10:09:55.649Z,5856.00
2019-04-28T10:10:55.621Z,5876.00
2019-04-28T10:11:55.610Z,6228.00
2019-04-28T10:12:55.612Z,6552.00
2019-04-28T10:13:57.081Z,6696.00
2019-04-28T10:14:55.578Z,6700.00
2019-04-28T10:15:55.567Z,6560.00
2019-04-28T10:16:55.556Z,6480.00
2019-04-28T10:17:55.546Z,6332.00
2019-04-28T10:18:55.546Z,6232.00
2019-04-28T10:19:55.527Z,6252.00
2019-04-28T10:20:55.516Z,6260.00
2019-04-28T10:21:55.503Z,6076.00
2019-04-28T10:22:55.493Z,6216.00
2019-04-28T10:23:55.482Z,6492.00
2019-04-28T10:24:55.481Z,6536.00
2019-04-28T10:25:55.461Z,6740.00
2019-04-28T10:26:55.449Z,7008.00
2019-04-28T10:27:55.439Z,7320.00
2019-04-28T10:28:55.433Z,7508.00
2019-04-28T10:29:55.432Z,7616.00
2019-04-28T10:30:55.423Z,7364.00
2019-04-28T10:31:55.399Z,7244.00
2019-04-28T10:32:55.386Z,6952.00
2019-04-28T10:33:55.373Z,6700.00
2019-04-28T10:34:55.489Z,7916.00
2019-04-28T10:35:55.351Z,7828.00
2019-04-28T10:36:55.351Z,6400.00
2019-04-28T10:37:55.330Z,6404.00
2019-04-28T10:38:55.321Z,5904.00
2019-04-28T10:39:55.308Z,5512.00
2019-04-28T10:40:55.297Z,5456.00
2019-04-28T10:41:55.287Z,5388.00
2019-04-28T10:42:55.289Z,5116.00
2019-04-28T10:43:55.291Z,5132.00
2019-04-28T10:44:55.259Z,5204.00
2019-04-28T10:45:55.243Z,5112.00
2019-04-28T10:46:55.232Z,5096.00
2019-04-28T10:47:55.223Z,5140.00
2019-04-28T10:48:55.223Z,4956.00
2019-04-28T10:49:55.203Z,4792.00
2019-04-28T10:50:55.190Z,4708.00
2019-04-28T10:51:59.529Z,4580.00
2019-04-28T10:52:55.169Z,4520.00
2019-04-28T10:53:55.158Z,4564.00
2019-04-28T10:54:55.159Z,4648.00
2019-04-28T10:55:55.136Z,4892.00
2019-04-28T10:56:55.127Z,5148.00
2019-04-28T10:57:55.115Z,5340.00
2019-04-28T10:58:55.108Z,5540.00
2019-04-28T10:59:55.094Z,5608.00
2019-04-28T11:00:55.101Z,5628.00
2019-04-28T11:01:55.072Z,5748.00
2019-04-28T11:02:55.061Z,5652.00
2019-04-28T11:03:55.050Z,5488.00
2019-04-28T11:05:07.479Z,5312.00
2019-04-28T11:05:56.046Z,5136.00
2019-04-28T11:06:55.018Z,4932.00
2019-04-28T11:07:55.011Z,4720.00
2019-04-28T11:08:54.995Z,4596.00
2019-04-28T11:09:54.984Z,4536.00
2019-04-28T11:10:54.974Z,4424.00
2019-04-28T11:11:54.977Z,4300.00
2019-04-28T11:12:54.953Z,4152.00
2019-04-28T11:13:54.948Z,4040.00
2019-04-28T11:14:54.931Z,3912.00
2019-04-28T11:15:54.936Z,3740.00
2019-04-28T11:16:54.909Z,3552.00
2019-04-28T11:17:54.911Z,3296.00
2019-04-28T11:18:54.889Z,3088.00
2019-04-28T11:19:54.884Z,3032.00
2019-04-28T11:20:54.872Z,3160.00
2019-04-28T11:21:54.855Z,3292.00
2019-04-28T11:22:54.844Z,3420.00
2019-04-28T11:23:54.845Z,3448.00
2019-04-28T11:24:54.826Z,3236.00
2019-04-28T11:25:54.817Z,3132.00
2019-04-28T11:26:54.802Z,3296.00
2019-04-28T11:27:55.551Z,3524.00
2019-04-28T11:28:54.781Z,3568.00
2019-04-28T11:29:54.782Z,3588.00
2019-04-28T11:30:54.758Z,3712.00
2019-04-28T11:31:54.748Z,3864.00
2019-04-28T11:32:54.735Z,4040.00
2019-04-28T11:33:54.724Z,4312.00
2019-04-28T11:34:54.713Z,4620.00
2019-04-28T11:35:54.714Z,4932.00
2019-04-28T11:36:54.692Z,5328.00
2019-04-28T11:37:54.680Z,5836.00
2019-04-28T11:38:54.675Z,6396.00
2019-04-28T11:39:54.658Z,6816.00
2019-04-28T11:40:54.648Z,7068.00
2019-04-28T11:41:54.666Z,7260.00
2019-04-28T11:42:54.643Z,7400.00
2019-04-28T11:43:54.615Z,7532.00
2019-04-28T11:44:54.605Z,7652.00
2019-04-28T11:45:54.594Z,7792.00
2019-04-28T11:46:54.587Z,7924.00
2019-04-28T11:47:54.613Z,8016.00
2019-04-28T11:48:54.563Z,8096.00
2019-04-28T11:49:54.552Z,8164.00
2019-04-28T11:50:54.541Z,8212.00
2019-04-28T11:51:54.530Z,8240.00
2019-04-28T11:52:54.520Z,8244.00
2019-04-28T11:53:54.521Z,8252.00
2019-04-28T11:54:54.496Z,8264.00
2019-04-28T11:55:54.502Z,8272.00
2019-04-28T11:56:54.475Z,8260.00
2019-04-28T11:57:54.467Z,8228.00
2019-04-28T11:58:54.452Z,8176.00
2019-04-28T11:59:54.456Z,8092.00
2019-04-28T12:00:54.431Z,7972.00
2019-04-28T12:01:54.420Z,7868.00
2019-04-28T12:02:54.428Z,7768.00
2019-04-28T12:03:54.407Z,7708.00
2019-04-28T12:04:54.391Z,7700.00
2019-04-28T12:05:54.394Z,7668.00
2019-04-28T12:06:54.371Z,7636.00
2019-04-28T12:07:54.356Z,7568.00
2019-04-28T12:08:54.350Z,7500.00
2019-04-28T12:10:04.875Z,7412.00
2019-04-28T12:10:55.349Z,7328.00
2019-04-28T12:11:54.313Z,7220.00
2019-04-28T12:12:54.303Z,7100.00
2019-04-28T12:13:54.303Z,6948.00
2019-04-28T12:14:54.283Z,6792.00
2019-04-28T12:15:54.279Z,6616.00
2019-04-28T12:16:54.276Z,6528.00
2019-04-28T12:17:54.246Z,6464.00
2019-04-28T12:18:54.234Z,6472.00
2019-04-28T12:19:54.224Z,6324.00
2019-04-28T12:20:54.214Z,6192.00
2019-04-28T12:21:54.202Z,6108.00
2019-04-28T12:22:54.231Z,6072.00
2019-04-28T12:23:54.182Z,6080.00
2019-04-28T12:24:54.168Z,6100.00
2019-04-28T12:25:54.160Z,6104.00
2019-04-28T12:26:54.145Z,6080.00
2019-04-28T12:27:54.135Z,6124.00